Weather History for Richmond, KY

Change the Weather History Date:

Thursday, December 15, 2011

  Actual Average (KLOZ) Record (KLOZ)
Temperature  
Mean Temperature 52 °F 38 °F  
Max Temperature 60 °F 47 °F 72 °F (1971)
Min Temperature 44 °F 29 °F 2 °F (2010)
Degree Days  
Heating Degree Days 13 27  
Month to date heating degree days 372  
Since 1 July heating degree days 1202  
Cooling Degree Days 0 0  
Month to date cooling degree days 0  
Growing Degree Days 2 (Base 50)    
Moisture  
Dew Point 50 °F    
Average Humidity 79    
Maximum Humidity 100    
Minimum Humidity 63    
Precipitation  
Precipitation 0.00 in 0.14 in 1.19 in (1982)
Month to date precipitation 2.18  
Sea Level Pressure  
Sea Level Pressure 30.05 in    
Wind  
Wind Speed 14 mph (SW)    
Max Wind Speed 18 mph    
Max Gust Speed 28 mph    
Visibility 10 miles    
Events      
T = Trace of Precipitation, MM = Missing Value Source: NWS Daily Summary

Daily Weather History Graph

Daily Weather History Graph

Search for Another Location

Airport:

Trip Planner

Search our weather history database for the weather conditions in past years. The results will help you decide how hot, cold, wet, or windy it might be!

Date:

Astronomy

Dec. 15, 2011 Rise Set
Actual Time 7:44 AM EST 5:19 PM EST
Civil Twilight 7:15 AM EST 5:49 PM EST
Nautical Twilight 6:42 AM EST 6:22 PM EST
Astronomical Twilight 6:10 AM EST 6:53 PM EST
Moon 10:40 PM EST (12/15) 11:05 AM EST (12/15)
Length of Visible Light 10h 33m
Length of Day
9h 34m
Waning Gibbous, 75% of the Moon is Illuminated
Dec 15
Waning Gibbous
Dec 17
Last Quarter
Dec 24
New
Jan 1
First Quarter
Jan 9
Full

Hourly Weather History & Observations

Time (EST) Temp. Windchill Dew Point Humidity Pressure Visibility Wind Dir Wind Speed Gust Speed Precip Events Conditions
12:15 AM 59.0 °F - 46.4 °F 63% 30.08 in 10.0 mi SSW 13.8 mph 20.7 mph N/A   Clear
12:35 AM 59.0 °F - 46.4 °F 63% 30.08 in 10.0 mi SSW 15.0 mph 24.2 mph N/A   Mostly Cloudy
12:55 AM 59.0 °F - 46.4 °F 63% 30.08 in 10.0 mi South 18.4 mph 25.3 mph N/A   Mostly Cloudy
1:15 AM 59.0 °F - 46.4 °F 63% 30.08 in 10.0 mi SSW 17.3 mph 21.9 mph N/A   Scattered Clouds
1:35 AM 59.0 °F - 46.4 °F 63% 30.08 in 10.0 mi South 16.1 mph 23.0 mph N/A   Clear
1:55 AM 59.0 °F - 46.4 °F 63% 30.07 in 10.0 mi South 17.3 mph 21.9 mph N/A   Clear
2:15 AM 59.0 °F - 46.4 °F 63% 30.07 in 10.0 mi South 16.1 mph 23.0 mph N/A   Clear
2:35 AM 59.0 °F - 46.4 °F 63% 30.06 in 10.0 mi South 13.8 mph 23.0 mph N/A   Clear
2:55 AM 59.0 °F - 46.4 °F 63% 30.05 in 10.0 mi South 16.1 mph 20.7 mph N/A   Clear
3:15 AM 59.0 °F - 46.4 °F 63% 30.05 in 10.0 mi South 16.1 mph 25.3 mph N/A   Clear
3:55 AM 59.0 °F - 46.4 °F 63% 30.05 in 10.0 mi South 13.8 mph 21.9 mph N/A   Mostly Cloudy
4:15 AM 59.0 °F - 46.4 °F 63% 30.04 in 10.0 mi South 12.7 mph 21.9 mph N/A   Mostly Cloudy
4:35 AM 59.0 °F - 46.4 °F 63% 30.04 in 10.0 mi South 17.3 mph 25.3 mph N/A   Mostly Cloudy
4:55 AM 59.0 °F - 46.4 °F 63% 30.04 in 10.0 mi South 9.2 mph - N/A   Overcast
5:15 AM 59.0 °F - 46.4 °F 63% 30.06 in 10.0 mi SW 6.9 mph - N/A   Overcast
5:35 AM 59.0 °F - 46.4 °F 63% 30.05 in 10.0 mi SSW 10.4 mph - N/A   Overcast
5:55 AM 59.0 °F - 46.4 °F 63% 30.05 in 10.0 mi South 13.8 mph - N/A   Overcast
6:15 AM 59.0 °F - 46.4 °F 63% 30.05 in 10.0 mi South 16.1 mph 20.7 mph N/A   Overcast
6:35 AM 59.0 °F - 46.4 °F 63% 30.04 in 10.0 mi South 17.3 mph 23.0 mph N/A   Overcast
7:35 AM 57.2 °F - 48.2 °F 72% 30.02 in 10.0 mi South 13.8 mph 23.0 mph N/A   Overcast
7:55 AM 57.2 °F - 48.2 °F 72% 30.01 in 10.0 mi South 12.7 mph 23.0 mph N/A   Overcast
8:15 AM 57.2 °F - 48.2 °F 72% 30.01 in 10.0 mi South 15.0 mph 23.0 mph N/A   Overcast
8:35 AM 57.2 °F - 48.2 °F 72% 30.01 in 10.0 mi SSW 11.5 mph 23.0 mph N/A   Overcast
8:55 AM 57.2 °F - 48.2 °F 72% 30.01 in 10.0 mi SSW 17.3 mph 23.0 mph N/A   Overcast
9:15 AM 57.2 °F - 50.0 °F 77% 30.00 in 10.0 mi SSW 17.3 mph 24.2 mph N/A   Overcast
9:35 AM 57.2 °F - 50.0 °F 77% 30.01 in 10.0 mi SSW 13.8 mph 21.9 mph N/A   Overcast
9:55 AM 57.2 °F - 50.0 °F 77% 30.00 in 10.0 mi SSW 16.1 mph 20.7 mph N/A   Overcast
10:15 AM 57.2 °F - 51.8 °F 82% 30.01 in 10.0 mi SSW 18.4 mph 24.2 mph N/A   Overcast
10:35 AM 57.2 °F - 51.8 °F 82% 30.01 in 10.0 mi SSW 12.7 mph 26.5 mph N/A   Overcast
10:55 AM 57.2 °F - 53.6 °F 88% 30.01 in 10.0 mi SSW 15.0 mph 25.3 mph N/A   Overcast
11:15 AM 57.2 °F - 53.6 °F 88% 30.01 in 10.0 mi SSW 16.1 mph 25.3 mph N/A   Overcast
11:35 AM 57.2 °F - 53.6 °F 88% 30.01 in 10.0 mi SSW 18.4 mph 24.2 mph N/A   Overcast
11:55 AM 59.0 °F - 53.6 °F 82% 30.00 in 10.0 mi SSW 18.4 mph 26.5 mph N/A   Overcast
12:15 PM 59.0 °F - 53.6 °F 82% 29.99 in 10.0 mi SSW 10.4 mph 23.0 mph N/A   Overcast
12:35 PM 59.0 °F - 55.4 °F 88% 29.98 in 10.0 mi SSW 15.0 mph 27.6 mph N/A   Overcast
12:55 PM 57.2 °F - 55.4 °F 94% 29.98 in 10.0 mi SW 12.7 mph 18.4 mph N/A   Overcast
1:35 PM 59.0 °F - 55.4 °F 88% 29.97 in 10.0 mi SW 11.5 mph 19.6 mph N/A   Overcast
1:55 PM 59.0 °F - 55.4 °F 88% 29.97 in 10.0 mi SW 13.8 mph 20.7 mph N/A   Overcast
2:15 PM 60.8 °F - 55.4 °F 82% 29.97 in 10.0 mi SW 12.7 mph 21.9 mph N/A   Overcast
2:35 PM 60.8 °F - 55.4 °F 82% 29.96 in 10.0 mi SW 16.1 mph 21.9 mph N/A   Overcast
2:55 PM 59.0 °F - 57.2 °F 94% 29.97 in 7.0 mi SW 15.0 mph 23.0 mph N/A   Overcast
3:15 PM 59.0 °F - 57.2 °F 94% 29.98 in 3.0 mi SW 12.7 mph 16.1 mph N/A   Overcast
3:35 PM 57.2 °F - 57.2 °F 100% 29.99 in 3.0 mi WSW 11.5 mph 16.1 mph N/A   Overcast
3:55 PM 59.0 °F - 57.2 °F 94% 29.99 in 10.0 mi SW 11.5 mph 16.1 mph N/A   Overcast
4:15 PM 59.0 °F - 57.2 °F 94% 29.99 in 10.0 mi SW 10.4 mph - N/A   Overcast
4:35 PM 59.0 °F - 57.2 °F 94% 30.00 in 10.0 mi SW 13.8 mph - N/A   Overcast
4:55 PM 59.0 °F - 57.2 °F 94% 30.00 in 10.0 mi SW 12.7 mph - N/A   Overcast
5:15 PM 59.0 °F - 55.4 °F 88% 30.01 in 10.0 mi WSW 10.4 mph - N/A   Overcast
5:35 PM 59.0 °F - 55.4 °F 88% 30.02 in 10.0 mi WSW 9.2 mph - N/A   Overcast
5:55 PM 59.0 °F - 55.4 °F 88% 30.03 in 10.0 mi WSW 10.4 mph - N/A   Overcast
6:15 PM 59.0 °F - 55.4 °F 88% 30.03 in 10.0 mi WSW 10.4 mph - N/A   Mostly Cloudy
6:35 PM 57.2 °F - 55.4 °F 94% 30.05 in 10.0 mi WSW 8.1 mph - N/A   Scattered Clouds
6:55 PM 57.2 °F - 55.4 °F 94% 30.06 in 10.0 mi WSW 6.9 mph - N/A   Scattered Clouds
7:15 PM 57.2 °F - 55.4 °F 94% 30.05 in 10.0 mi West 5.8 mph - N/A   Mostly Cloudy
7:35 PM 57.2 °F - 53.6 °F 88% 30.06 in 10.0 mi West 6.9 mph - N/A   Overcast
7:55 PM 57.2 °F - 51.8 °F 82% 30.08 in 10.0 mi West 9.2 mph - N/A   Overcast
8:15 PM 57.2 °F - 51.8 °F 82% 30.09 in 10.0 mi West 9.2 mph - N/A   Overcast
8:35 PM 55.4 °F - 50.0 °F 82% 30.10 in 10.0 mi WNW 17.3 mph - N/A   Overcast
8:55 PM 53.6 °F - 48.2 °F 82% 30.11 in 10.0 mi NNW 15.0 mph 25.3 mph N/A   Overcast
9:15 PM 51.8 °F - 48.2 °F 88% 30.13 in 10.0 mi NW 10.4 mph - N/A   Mostly Cloudy
9:35 PM 51.8 °F - 46.4 °F 82% 30.13 in 10.0 mi WNW 15.0 mph - N/A   Overcast
9:55 PM 50.0 °F - 46.4 °F 87% 30.14 in 10.0 mi WNW 12.7 mph - N/A   Mostly Cloudy
10:35 PM 48.2 °F - 44.6 °F 87% 30.16 in 10.0 mi WNW 5.8 mph - N/A   Overcast
10:55 PM 48.2 °F - 42.8 °F 82% 30.18 in 10.0 mi WNW 10.4 mph 17.3 mph N/A   Mostly Cloudy
11:15 PM 46.4 °F 42.4 °F 42.8 °F 87% 30.19 in 10.0 mi NNW 8.1 mph - N/A   Overcast
11:35 PM 44.6 °F 39.2 °F 39.2 °F 81% 30.20 in 10.0 mi NW 10.4 mph - N/A   Overcast
11:55 PM 44.6 °F 39.2 °F 39.2 °F 81% 30.22 in 10.0 mi NW 10.4 mph - N/A   Overcast